createdAt,value
2023-10-15T00:00:00.427Z,993.66
2023-10-15T00:01:02.278Z,993.67
2023-10-15T00:02:04.139Z,993.68
2023-10-15T00:03:05.768Z,993.68
2023-10-15T00:04:07.393Z,993.64
2023-10-15T00:05:10.259Z,993.65
2023-10-15T00:06:10.872Z,993.64
2023-10-15T00:07:12.611Z,993.68
2023-10-15T00:08:14.340Z,993.62
2023-10-15T00:09:16.040Z,993.62
2023-10-15T00:10:17.842Z,993.65
2023-10-15T00:11:19.531Z,993.64
2023-10-15T00:12:21.248Z,993.62
2023-10-15T00:13:24.200Z,993.63
2023-10-15T00:14:24.971Z,993.64
2023-10-15T00:15:26.451Z,993.61
2023-10-15T00:16:29.716Z,993.61
2023-10-15T00:17:29.989Z,993.64
2023-10-15T00:18:31.744Z,993.63
2023-10-15T00:19:33.459Z,993.68
2023-10-15T00:20:35.136Z,993.64
2023-10-15T00:21:36.861Z,993.67
2023-10-15T00:22:38.668Z,993.7
2023-10-15T00:23:40.339Z,993.67
2023-10-15T00:24:42.107Z,993.66
2023-10-15T00:25:44.005Z,993.7
2023-10-15T00:26:45.560Z,993.66
2023-10-15T00:27:48.526Z,993.57
2023-10-15T00:28:49.235Z,993.66
2023-10-15T00:29:50.736Z,993.64
2023-10-15T00:30:51.900Z,993.65
2023-10-15T00:31:54.243Z,993.6
2023-10-15T00:32:55.966Z,993.58
2023-10-15T00:33:59.138Z,993.62
2023-10-15T00:35:00.765Z,993.62
2023-10-15T00:36:02.334Z,993.56
2023-10-15T00:37:02.908Z,993.63
2023-10-15T00:38:04.693Z,993.58
2023-10-15T00:39:06.414Z,993.58
2023-10-15T00:40:08.110Z,993.55
2023-10-15T00:41:11.219Z,993.53
2023-10-15T00:42:11.531Z,993.57
2023-10-15T00:43:13.277Z,993.59
2023-10-15T00:44:15.005Z,993.53
2023-10-15T00:45:17.179Z,993.54
2023-10-15T00:46:18.569Z,993.42
2023-10-15T00:47:20.293Z,993.5
2023-10-15T00:48:21.912Z,993.5
2023-10-15T00:49:23.683Z,993.43
2023-10-15T00:50:25.377Z,993.47
2023-10-15T00:51:27.186Z,993.47
2023-10-15T00:52:28.899Z,993.52
2023-10-15T00:53:30.805Z,993.48
2023-10-15T00:54:33.683Z,993.5
2023-10-15T00:55:35.539Z,993.51
2023-10-15T00:56:35.897Z,993.52
2023-10-15T00:57:37.553Z,993.49
2023-10-15T00:58:40.443Z,993.43
2023-10-15T00:59:42.029Z,993.46
2023-10-15T01:00:42.720Z,993.43
2023-10-15T01:01:44.634Z,993.52
2023-10-15T01:02:46.266Z,993.44
2023-10-15T01:03:47.936Z,993.45
2023-10-15T01:04:49.775Z,993.44
2023-10-15T01:05:51.402Z,993.44
2023-10-15T01:06:53.126Z,993.48
2023-10-15T01:07:54.161Z,993.44
2023-10-15T01:08:56.612Z,993.4
2023-10-15T01:09:58.341Z,993.44
2023-10-15T01:11:00.086Z,993.44
2023-10-15T01:12:06.322Z,993.44
2023-10-15T01:13:08.634Z,993.46
2023-10-15T01:14:09.904Z,993.46
2023-10-15T01:22:10.991Z,993.3
2023-10-15T01:24:13.056Z,993.27
2023-10-15T01:25:13.369Z,993.31
2023-10-15T01:26:15.138Z,993.32
2023-10-15T01:27:16.789Z,993.35
2023-10-15T01:28:18.567Z,993.34
2023-10-15T01:29:20.292Z,993.28
2023-10-15T01:30:22.051Z,993.31
2023-10-15T01:31:23.816Z,993.31
2023-10-15T01:32:25.463Z,993.33
2023-10-15T01:33:27.191Z,993.28
2023-10-15T01:34:29.024Z,993.31
2023-10-15T01:35:30.685Z,993.35
2023-10-15T01:36:32.408Z,993.29
2023-10-15T01:37:34.180Z,993.3
2023-10-15T01:38:36.002Z,993.35
2023-10-15T01:39:37.588Z,993.37
2023-10-15T01:40:39.380Z,993.37
2023-10-15T01:41:41.145Z,993.39
2023-10-15T01:42:42.970Z,993.42
2023-10-15T01:43:44.546Z,993.39
2023-10-15T01:44:46.297Z,993.4
2023-10-15T01:45:48.015Z,993.42
2023-10-15T01:46:49.909Z,993.47
2023-10-15T01:47:51.857Z,993.43
2023-10-15T01:48:53.202Z,993.47
2023-10-15T01:49:54.962Z,993.44
2023-10-15T01:50:57.824Z,993.42
2023-10-15T01:51:58.397Z,993.43
2023-10-15T01:53:00.194Z,993.4
2023-10-15T01:54:03.002Z,993.45
2023-10-15T01:55:03.643Z,993.42
2023-10-15T01:56:05.405Z,993.43
2023-10-15T01:57:11.272Z,993.38
2023-10-15T01:58:14.005Z,993.43
2023-10-15T01:59:15.769Z,993.42
2023-10-15T02:00:17.395Z,993.42
2023-10-15T02:01:19.402Z,993.31
2023-10-15T02:02:21.178Z,993.35
2023-10-15T02:03:22.710Z,993.4
2023-10-15T02:04:24.668Z,993.39
2023-10-15T02:05:26.236Z,993.41
2023-10-15T02:06:27.827Z,993.42
2023-10-15T02:07:29.606Z,993.4
2023-10-15T02:08:31.267Z,993.43
2023-10-15T02:09:33.023Z,993.42
2023-10-15T02:10:34.799Z,993.42
2023-10-15T02:11:36.555Z,993.4
2023-10-15T02:12:38.249Z,993.39
2023-10-15T02:13:39.981Z,993.41
2023-10-15T02:14:41.764Z,993.43
2023-10-15T02:15:43.541Z,993.4
2023-10-15T02:16:45.323Z,993.43
2023-10-15T02:17:47.000Z,993.43
2023-10-15T02:18:48.873Z,993.46
2023-10-15T02:19:50.355Z,993.41
2023-10-15T02:20:52.359Z,993.36
2023-10-15T02:21:53.833Z,993.35
2023-10-15T02:22:55.617Z,993.41
2023-10-15T02:23:57.284Z,993.39
2023-10-15T02:24:59.032Z,993.38
2023-10-15T02:26:01.408Z,993.37
2023-10-15T02:27:02.518Z,993.38
2023-10-15T02:28:07.144Z,993.35
2023-10-15T02:29:08.466Z,993.36
2023-10-15T02:30:12.867Z,993.37
2023-10-15T02:31:14.573Z,993.4
2023-10-15T02:32:16.402Z,993.38
2023-10-15T02:33:18.128Z,993.42
2023-10-15T02:34:19.900Z,993.36
2023-10-15T02:35:21.500Z,993.39
2023-10-15T02:36:23.230Z,993.39
2023-10-15T02:37:25.192Z,993.41
2023-10-15T02:38:26.758Z,993.38
2023-10-15T02:39:28.444Z,993.4
2023-10-15T02:40:30.186Z,993.39
2023-10-15T02:41:31.918Z,993.39
2023-10-15T02:42:33.648Z,993.34
2023-10-15T02:43:35.433Z,993.34
2023-10-15T02:44:37.099Z,993.34
2023-10-15T02:45:38.834Z,993.38
2023-10-15T02:46:40.675Z,993.27
2023-10-15T02:47:42.620Z,993.32
2023-10-15T02:48:44.106Z,993.28
2023-10-15T02:49:45.816Z,993.26
2023-10-15T02:50:47.513Z,993.33
2023-10-15T02:51:49.381Z,993.31
2023-10-15T02:52:51.720Z,993.31
2023-10-15T02:54:12.037Z,993.27
2023-10-15T02:55:17.702Z,993.29
2023-10-15T02:56:21.903Z,993.33
2023-10-15T02:57:23.635Z,993.35
2023-10-15T02:58:25.406Z,993.33
2023-10-15T02:59:28.548Z,993.34
2023-10-15T03:00:28.870Z,993.33
2023-10-15T03:01:30.611Z,993.33
2023-10-15T03:02:32.382Z,993.37
2023-10-15T03:03:34.067Z,993.34
2023-10-15T03:04:35.795Z,993.3
2023-10-15T03:05:37.482Z,993.39
2023-10-15T03:06:39.238Z,993.34
2023-10-15T03:07:41.027Z,993.31
2023-10-15T03:08:49.760Z,993.31
2023-10-15T03:09:44.469Z,993.31
2023-10-15T03:10:46.174Z,993.35
2023-10-15T03:11:47.122Z,993.34
2023-10-15T03:12:49.627Z,993.35
2023-10-15T03:13:51.493Z,993.31
2023-10-15T03:14:57.436Z,993.37
2023-10-15T03:16:01.283Z,993.3
2023-10-15T03:17:01.792Z,993.3
2023-10-15T03:18:03.517Z,993.32
2023-10-15T03:19:05.217Z,993.34
2023-10-15T03:20:06.919Z,993.28
2023-10-15T03:21:08.623Z,993.32
2023-10-15T03:22:10.373Z,993.31
2023-10-15T03:23:13.051Z,993.24
2023-10-15T03:24:13.832Z,993.27
2023-10-15T03:25:15.562Z,993.28
2023-10-15T03:26:17.274Z,993.3
2023-10-15T03:27:19.050Z,993.29
2023-10-15T03:28:20.771Z,993.3
2023-10-15T03:29:22.482Z,993.27
2023-10-15T03:30:24.238Z,993.26
2023-10-15T03:31:26.046Z,993.22
2023-10-15T03:32:27.832Z,993.26
2023-10-15T03:33:29.425Z,993.34
2023-10-15T03:34:31.174Z,993.35
2023-10-15T03:35:33.730Z,993.38
2023-10-15T03:36:34.606Z,993.34
2023-10-15T03:37:36.330Z,993.4
2023-10-15T03:38:38.096Z,993.38
2023-10-15T03:39:39.902Z,993.36
2023-10-15T03:40:41.648Z,993.38
2023-10-15T03:41:43.319Z,993.37
2023-10-15T03:42:45.055Z,993.35
2023-10-15T03:43:46.767Z,993.38
2023-10-15T03:44:48.469Z,993.39
2023-10-15T03:45:50.273Z,993.43
2023-10-15T03:46:51.948Z,993.41
2023-10-15T03:47:53.872Z,993.46
2023-10-15T03:48:55.419Z,993.44
2023-10-15T03:50:07.814Z,993.46
2023-10-15T03:51:09.157Z,993.45
2023-10-15T03:52:11.108Z,993.44
2023-10-15T03:53:12.655Z,993.45
2023-10-15T03:54:14.386Z,993.45
2023-10-15T03:55:16.123Z,993.45
2023-10-15T03:56:17.852Z,993.47
2023-10-15T03:57:19.614Z,993.46
2023-10-15T03:58:21.345Z,993.43
2023-10-15T03:59:23.075Z,993.4
2023-10-15T04:00:24.776Z,993.45
2023-10-15T04:01:26.633Z,993.39
2023-10-15T04:02:28.330Z,993.42
2023-10-15T04:03:30.064Z,993.4
2023-10-15T04:04:32.574Z,993.38
2023-10-15T04:05:33.454Z,993.44
2023-10-15T04:06:35.165Z,993.42
2023-10-15T04:07:36.916Z,993.43
2023-10-15T04:08:39.826Z,993.44
2023-10-15T04:09:40.371Z,993.45
2023-10-15T04:10:42.159Z,993.45
2023-10-15T04:11:44.082Z,993.48
2023-10-15T04:12:45.536Z,993.41
2023-10-15T04:13:51.484Z,993.43
2023-10-15T04:14:54.201Z,993.43
2023-10-15T04:15:55.909Z,993.37
2023-10-15T04:16:57.648Z,993.45
2023-10-15T04:17:59.492Z,993.4
2023-10-15T04:19:01.082Z,993.38
2023-10-15T04:20:02.931Z,993.36
2023-10-15T04:21:04.553Z,993.42
2023-10-15T04:22:06.268Z,993.38
2023-10-15T04:23:08.048Z,993.38
2023-10-15T04:24:09.768Z,993.38
2023-10-15T04:25:11.690Z,993.38
2023-10-15T04:26:14.422Z,993.39
2023-10-15T04:27:14.953Z,993.39
2023-10-15T04:28:16.723Z,993.38
2023-10-15T04:29:18.477Z,993.37
2023-10-15T04:30:21.719Z,993.39
2023-10-15T04:31:21.968Z,993.39
2023-10-15T04:32:23.719Z,993.39
2023-10-15T04:33:25.352Z,993.31
2023-10-15T04:34:28.485Z,993.42
2023-10-15T04:35:28.816Z,993.41
2023-10-15T04:36:30.560Z,993.41
2023-10-15T04:37:32.319Z,993.39
2023-10-15T04:38:34.024Z,993.43
2023-10-15T04:39:50.664Z,993.37
2023-10-15T04:40:37.517Z,993.43
2023-10-15T04:41:39.243Z,993.45
2023-10-15T04:42:40.960Z,993.45
2023-10-15T04:43:48.204Z,993.48
2023-10-15T04:44:49.557Z,993.48
2023-10-15T04:45:51.400Z,993.48
2023-10-15T04:46:53.970Z,993.49
2023-10-15T04:47:54.837Z,993.49
2023-10-15T04:48:56.520Z,993.48
2023-10-15T04:49:58.360Z,993.5
2023-10-15T04:51:00.102Z,993.45
2023-10-15T04:52:01.694Z,993.46
2023-10-15T04:53:03.506Z,993.42
2023-10-15T04:54:05.170Z,993.43
2023-10-15T04:55:06.912Z,993.44
2023-10-15T04:56:08.677Z,993.37
2023-10-15T04:57:10.522Z,993.43
2023-10-15T04:58:12.145Z,993.42
2023-10-15T04:59:13.860Z,993.43
2023-10-15T05:00:15.558Z,993.44
2023-10-15T05:01:17.426Z,993.43
2023-10-15T05:02:19.119Z,993.43
2023-10-15T05:03:20.781Z,993.41
2023-10-15T05:04:22.665Z,993.37
2023-10-15T05:05:24.263Z,993.4
2023-10-15T05:06:26.028Z,993.39
2023-10-15T05:07:27.719Z,993.4
2023-10-15T05:08:29.463Z,993.41
2023-10-15T05:09:31.178Z,993.4
2023-10-15T05:10:33.032Z,993.45
2023-10-15T05:11:34.635Z,993.41
2023-10-15T05:12:36.344Z,993.42
2023-10-15T05:13:38.269Z,993.41
2023-10-15T05:14:39.877Z,993.42
2023-10-15T05:15:41.611Z,993.44
2023-10-15T05:16:44.472Z,993.44
2023-10-15T05:17:45.096Z,993.47
2023-10-15T05:18:46.782Z,993.4
2023-10-15T05:19:48.555Z,993.49
2023-10-15T05:20:50.255Z,993.46
2023-10-15T05:21:52.071Z,993.5
2023-10-15T05:22:53.786Z,993.48
2023-10-15T05:23:55.455Z,993.47
2023-10-15T05:24:57.196Z,993.45
2023-10-15T05:25:59.015Z,993.47
2023-10-15T05:27:00.643Z,993.52
2023-10-15T05:28:02.452Z,993.49
2023-10-15T05:29:04.212Z,993.45
2023-10-15T05:30:05.850Z,993.6
2023-10-15T05:31:07.583Z,993.59
2023-10-15T05:32:10.872Z,993.6
2023-10-15T05:33:11.226Z,993.62
2023-10-15T05:34:12.794Z,993.62
2023-10-15T05:35:14.519Z,993.62
2023-10-15T05:36:16.262Z,993.62
2023-10-15T05:37:17.994Z,993.63
2023-10-15T05:38:19.724Z,993.68
2023-10-15T05:39:20.613Z,993.68
2023-10-15T05:40:23.229Z,993.67
2023-10-15T05:41:24.920Z,993.71
2023-10-15T05:42:26.668Z,993.67
2023-10-15T05:43:28.516Z,993.69
2023-10-15T05:44:30.117Z,993.72
2023-10-15T05:45:31.871Z,993.69
2023-10-15T05:46:33.674Z,993.68
2023-10-15T05:47:35.478Z,993.69
2023-10-15T05:48:37.076Z,993.72
2023-10-15T05:49:38.873Z,993.71
2023-10-15T05:50:40.530Z,993.73
2023-10-15T05:51:42.260Z,993.72
2023-10-15T05:52:44.027Z,993.74
2023-10-15T05:53:45.730Z,993.72
2023-10-15T05:54:47.487Z,993.7
2023-10-15T05:55:49.320Z,993.74
2023-10-15T05:56:50.926Z,993.72
2023-10-15T05:57:52.673Z,993.73
2023-10-15T05:58:54.442Z,993.78
2023-10-15T05:59:56.138Z,993.78
2023-10-15T06:00:58.043Z,993.8
2023-10-15T06:01:59.730Z,993.85
2023-10-15T06:03:01.488Z,993.87
2023-10-15T06:04:03.181Z,993.83
2023-10-15T06:05:04.854Z,993.85
2023-10-15T06:06:06.579Z,993.86
2023-10-15T06:07:08.262Z,993.85
2023-10-15T06:08:10.114Z,993.84
2023-10-15T06:09:11.746Z,993.86
2023-10-15T06:10:13.489Z,993.85
2023-10-15T06:11:15.213Z,993.82
2023-10-15T06:12:16.961Z,993.86
2023-10-15T06:13:18.693Z,993.79
2023-10-15T06:14:20.411Z,993.81
2023-10-15T06:15:24.590Z,993.86
2023-10-15T06:16:23.988Z,993.83
2023-10-15T06:17:25.714Z,993.87
2023-10-15T06:18:27.390Z,993.85
2023-10-15T06:19:29.215Z,993.85
2023-10-15T06:20:30.822Z,993.92
2023-10-15T06:21:32.564Z,993.91
2023-10-15T06:22:34.352Z,993.88
2023-10-15T06:23:36.094Z,993.88
2023-10-15T06:24:39.597Z,993.9
2023-10-15T06:25:39.750Z,993.91
2023-10-15T06:26:41.189Z,993.9
2023-10-15T06:27:42.925Z,993.95
2023-10-15T06:28:44.732Z,993.95
2023-10-15T06:29:46.409Z,993.94
2023-10-15T06:30:48.184Z,993.93
2023-10-15T06:31:49.901Z,993.95
2023-10-15T06:32:51.824Z,994
2023-10-15T06:33:53.330Z,994
2023-10-15T06:34:55.103Z,994.01
2023-10-15T06:35:59.168Z,994.03
2023-10-15T06:36:58.531Z,994
2023-10-15T06:38:00.383Z,993.98
2023-10-15T06:39:02.132Z,993.96
2023-10-15T06:40:18.722Z,994.03
2023-10-15T06:41:05.494Z,994
2023-10-15T06:42:08.412Z,993.98
2023-10-15T06:43:08.944Z,993.98
2023-10-15T06:44:10.740Z,993.96
2023-10-15T06:45:12.402Z,993.95
2023-10-15T06:46:14.161Z,993.92
2023-10-15T06:47:15.935Z,993.89
2023-10-15T06:48:17.689Z,993.92
2023-10-15T06:49:19.343Z,993.92
2023-10-15T06:50:24.685Z,994
2023-10-15T06:51:22.810Z,994.02
2023-10-15T06:52:24.531Z,994.04
2023-10-15T06:53:27.503Z,994.11
2023-10-15T06:54:29.100Z,994.08
2023-10-15T06:55:29.750Z,994.08
2023-10-15T06:56:34.447Z,994.1
2023-10-15T06:57:38.346Z,994.06
2023-10-15T06:58:40.090Z,994.12
2023-10-15T06:59:41.308Z,994.09
2023-10-15T07:00:43.595Z,994.13
2023-10-15T07:01:45.323Z,994.16
2023-10-15T07:02:47.173Z,994.12
2023-10-15T07:03:48.819Z,994.16
2023-10-15T07:04:51.949Z,994.12
2023-10-15T07:05:52.200Z,994.1
2023-10-15T07:06:53.970Z,994.11
2023-10-15T07:07:55.753Z,994.11
2023-10-15T07:08:57.409Z,994.1
2023-10-15T07:09:59.154Z,994.15
2023-10-15T07:11:00.942Z,994.14
2023-10-15T07:12:02.610Z,994.17
2023-10-15T07:13:04.349Z,994.17
2023-10-15T07:14:06.125Z,994.22
2023-10-15T07:15:07.827Z,994.23
2023-10-15T07:16:09.549Z,994.19
2023-10-15T07:17:11.435Z,994.23
2023-10-15T07:18:13.071Z,994.2
2023-10-15T07:19:14.738Z,994.21
2023-10-15T07:20:16.606Z,994.16
2023-10-15T07:21:18.188Z,994.17
2023-10-15T07:22:19.951Z,994.2
2023-10-15T07:23:21.807Z,994.22
2023-10-15T07:24:23.578Z,994.22
2023-10-15T07:25:25.225Z,994.21
2023-10-15T07:26:25.854Z,994.23
2023-10-15T07:27:28.591Z,994.18
2023-10-15T07:28:30.406Z,994.21
2023-10-15T07:29:39.782Z,994.27
2023-10-15T07:30:44.175Z,994.25
2023-10-15T07:31:45.892Z,994.26
2023-10-15T07:32:53.961Z,994.29
2023-10-15T07:33:54.474Z,994.23
2023-10-15T07:34:56.226Z,994.27
2023-10-15T07:35:57.911Z,994.3
2023-10-15T07:36:59.626Z,994.29
2023-10-15T07:38:01.372Z,994.29
2023-10-15T07:39:03.470Z,994.32
2023-10-15T07:40:08.953Z,994.28
2023-10-15T07:41:11.783Z,994.29
2023-10-15T07:42:13.448Z,994.27
2023-10-15T07:43:16.613Z,994.27
2023-10-15T07:44:18.865Z,994.31
2023-10-15T07:45:20.648Z,994.34
2023-10-15T07:46:25.594Z,994.3
2023-10-15T07:47:27.320Z,994.32
2023-10-15T07:48:29.029Z,994.33
2023-10-15T07:49:30.510Z,994.24
2023-10-15T07:50:32.422Z,994.33
2023-10-15T07:51:51.032Z,994.39
2023-10-15T07:52:51.349Z,994.42
2023-10-15T07:53:58.179Z,994.43
2023-10-15T07:55:01.081Z,994.41
2023-10-15T07:56:01.716Z,994.44
2023-10-15T07:57:03.399Z,994.48
2023-10-15T07:58:05.125Z,994.51
2023-10-15T07:59:06.871Z,994.47
2023-10-15T08:00:08.574Z,994.56
2023-10-15T08:01:12.658Z,994.54
2023-10-15T08:02:12.147Z,994.57
2023-10-15T08:03:14.061Z,994.61
2023-10-15T08:04:15.643Z,994.6
2023-10-15T08:05:17.435Z,994.58
2023-10-15T08:06:19.241Z,994.6
2023-10-15T08:07:20.920Z,994.58
2023-10-15T08:08:22.429Z,994.59
2023-10-15T08:09:29.416Z,994.57
2023-10-15T08:10:31.503Z,994.48
2023-10-15T08:12:35.150Z,994.57
2023-10-15T08:14:45.819Z,994.56
2023-10-15T08:18:14.814Z,994.65
2023-10-15T08:19:16.495Z,994.64
2023-10-15T08:20:18.243Z,994.64
2023-10-15T08:21:20.060Z,994.6
2023-10-15T08:22:21.706Z,994.66
2023-10-15T08:23:23.453Z,994.64
2023-10-15T08:24:25.424Z,994.61
2023-10-15T08:25:26.909Z,994.63
2023-10-15T08:26:28.634Z,994.65
2023-10-15T08:27:30.374Z,994.62
2023-10-15T08:28:32.148Z,994.65
2023-10-15T08:29:33.824Z,994.67
2023-10-15T08:30:35.609Z,994.69
2023-10-15T08:31:37.342Z,994.6
2023-10-15T08:32:39.093Z,994.55
2023-10-15T08:33:42.506Z,994.69
2023-10-15T08:34:42.630Z,994.67
2023-10-15T08:35:44.225Z,994.71
2023-10-15T08:36:45.945Z,994.62
2023-10-15T08:37:47.723Z,994.67
2023-10-15T08:38:49.417Z,994.67
2023-10-15T08:39:51.168Z,994.71
2023-10-15T08:40:52.925Z,994.72
2023-10-15T08:41:54.678Z,994.73
2023-10-15T08:42:56.359Z,994.69
2023-10-15T08:43:58.162Z,994.7
2023-10-15T08:44:59.841Z,994.67
2023-10-15T08:46:01.767Z,994.73
2023-10-15T08:47:03.433Z,994.79
2023-10-15T08:48:05.166Z,994.73
2023-10-15T08:49:06.763Z,994.76
2023-10-15T08:50:08.663Z,994.71
2023-10-15T08:51:10.245Z,994.7
2023-10-15T08:52:12.073Z,994.75
2023-10-15T08:53:13.989Z,994.76
2023-10-15T08:54:15.493Z,994.76
2023-10-15T08:55:17.161Z,994.8
2023-10-15T08:56:18.920Z,994.73
2023-10-15T08:57:20.636Z,994.75
2023-10-15T08:58:22.381Z,994.76
2023-10-15T08:59:24.157Z,994.81
2023-10-15T09:00:31.779Z,994.79
2023-10-15T09:01:27.786Z,994.85
2023-10-15T09:02:29.668Z,994.88
2023-10-15T09:03:31.228Z,994.87
2023-10-15T09:04:32.829Z,994.85
2023-10-15T09:05:34.522Z,994.87
2023-10-15T09:06:36.246Z,994.89
2023-10-15T09:07:38.042Z,994.85
2023-10-15T09:08:42.319Z,994.89
2023-10-15T09:09:46.582Z,994.95
2023-10-15T09:10:48.340Z,994.92
2023-10-15T09:11:50.099Z,994.97
2023-10-15T09:12:51.778Z,994.99
2023-10-15T09:13:53.604Z,994.97
2023-10-15T09:14:55.242Z,994.97
2023-10-15T09:15:57.264Z,994.99
2023-10-15T09:16:59.214Z,994.98
2023-10-15T09:18:00.614Z,994.94
2023-10-15T09:19:02.188Z,994.97
2023-10-15T09:20:03.958Z,995.05
2023-10-15T09:21:05.653Z,995.02
2023-10-15T09:22:07.392Z,995.05
2023-10-15T09:23:09.226Z,995.04
2023-10-15T09:24:10.851Z,994.96
2023-10-15T09:25:12.579Z,995.02
2023-10-15T09:26:14.378Z,995
2023-10-15T09:27:16.048Z,995.02
2023-10-15T09:28:17.795Z,995.07
2023-10-15T09:29:19.513Z,994.98
2023-10-15T09:30:21.223Z,995.09
2023-10-15T09:31:23.025Z,995.07
2023-10-15T09:32:24.840Z,995.03
2023-10-15T09:33:26.565Z,995.03
2023-10-15T09:34:28.196Z,995.01
2023-10-15T09:35:29.930Z,995.02
2023-10-15T09:36:31.650Z,995.03
2023-10-15T09:37:33.377Z,995
2023-10-15T09:38:35.104Z,995.02
2023-10-15T09:39:36.974Z,995.05
2023-10-15T09:40:38.725Z,995.03
2023-10-15T09:41:40.328Z,995.02
2023-10-15T09:42:42.033Z,995.04
2023-10-15T09:43:43.805Z,995.04
2023-10-15T09:44:45.667Z,995.05
2023-10-15T09:45:47.254Z,995.06
2023-10-15T09:46:49.063Z,995.1
2023-10-15T09:47:50.795Z,995.11
2023-10-15T09:48:52.460Z,995.15
2023-10-15T09:49:54.191Z,995.09
2023-10-15T09:50:55.912Z,995.09
2023-10-15T09:51:57.621Z,995.11
2023-10-15T09:52:59.423Z,995.14
2023-10-15T09:54:01.123Z,995.13
2023-10-15T09:55:02.832Z,995.14
2023-10-15T09:56:04.624Z,995.19
2023-10-15T09:57:06.300Z,995.18
2023-10-15T09:58:08.047Z,995.22
2023-10-15T09:59:09.818Z,995.22
2023-10-15T10:00:11.512Z,995.22
2023-10-15T10:01:13.260Z,995.22
2023-10-15T10:02:15.111Z,995.23
2023-10-15T10:03:16.805Z,995.19
2023-10-15T10:04:18.441Z,995.21
2023-10-15T10:05:20.250Z,995.19
2023-10-15T10:06:21.922Z,995.15
2023-10-15T10:07:23.675Z,995.21
2023-10-15T10:08:25.395Z,995.21
2023-10-15T10:09:27.150Z,995.18
2023-10-15T10:10:28.848Z,995.21
2023-10-15T10:11:30.605Z,995.23
2023-10-15T10:12:32.301Z,995.23
2023-10-15T10:13:34.074Z,995.21
2023-10-15T10:14:35.771Z,995.29
2023-10-15T10:15:37.544Z,995.26
2023-10-15T10:16:39.375Z,995.23
2023-10-15T10:17:41.295Z,995.25
2023-10-15T10:18:42.728Z,995.24
2023-10-15T10:19:44.481Z,995.26
2023-10-15T10:20:46.188Z,995.22
2023-10-15T10:21:47.938Z,995.22
2023-10-15T10:22:49.704Z,995.22
2023-10-15T10:23:51.417Z,995.26
2023-10-15T10:24:53.155Z,995.2
2023-10-15T10:25:54.916Z,995.22
2023-10-15T10:26:56.602Z,995.21
2023-10-15T10:28:10.546Z,995.18
2023-10-15T10:29:00.197Z,995.16
2023-10-15T10:30:01.792Z,995.12
2023-10-15T10:31:03.536Z,995.13
2023-10-15T10:32:05.299Z,995.17
2023-10-15T10:33:07.033Z,995.14
2023-10-15T10:34:09.774Z,995.16
2023-10-15T10:36:12.197Z,995.09
2023-10-15T10:37:13.942Z,995.11
2023-10-15T10:38:15.781Z,995.08
2023-10-15T10:39:17.396Z,995.04
2023-10-15T10:40:19.136Z,995.09
2023-10-15T10:41:26.580Z,995.06
2023-10-15T10:42:22.836Z,995.07
2023-10-15T10:43:24.428Z,995.06
2023-10-15T10:44:28.073Z,995.12
2023-10-15T10:45:27.834Z,995.07
2023-10-15T10:46:29.547Z,995.05
2023-10-15T10:47:31.245Z,995.02
2023-10-15T10:48:32.864Z,995.05
2023-10-15T10:49:34.579Z,995.03
2023-10-15T10:50:36.307Z,995.04
2023-10-15T10:51:38.753Z,995.04
2023-10-15T10:52:39.811Z,995.05
2023-10-15T10:53:41.502Z,994.99
2023-10-15T10:54:43.234Z,994.95
2023-10-15T10:55:44.987Z,994.94
2023-10-15T10:56:46.777Z,994.94
2023-10-15T10:57:48.427Z,994.87
2023-10-15T10:58:50.205Z,994.94
2023-10-15T10:59:51.890Z,994.96
2023-10-15T11:00:53.673Z,994.89
2023-10-15T11:01:55.385Z,994.94
2023-10-15T11:02:57.120Z,994.99
2023-10-15T11:03:58.896Z,994.97
2023-10-15T11:05:00.615Z,994.92
2023-10-15T11:06:02.256Z,994.98
2023-10-15T11:07:04.019Z,994.95
2023-10-15T11:08:05.779Z,994.97
2023-10-15T11:09:07.498Z,994.98
2023-10-15T11:10:09.242Z,994.96
2023-10-15T11:11:11.015Z,994.97
2023-10-15T11:12:12.705Z,995
2023-10-15T11:13:14.419Z,995.04
2023-10-15T11:14:16.184Z,995.08
2023-10-15T11:15:17.903Z,995.07
2023-10-15T11:16:19.661Z,995.05
2023-10-15T11:17:21.372Z,995.03
2023-10-15T11:18:23.094Z,995.07
2023-10-15T11:19:24.822Z,995.07
2023-10-15T11:20:26.582Z,995.09
2023-10-15T11:21:28.291Z,995.1
2023-10-15T11:22:30.216Z,995.06
2023-10-15T11:23:31.757Z,995.03
2023-10-15T11:24:33.504Z,995.05
2023-10-15T11:25:35.231Z,995.04
2023-10-15T11:26:36.962Z,995.08
2023-10-15T11:27:38.692Z,995.15
2023-10-15T11:28:40.480Z,995.06
2023-10-15T11:29:42.167Z,995.04
2023-10-15T11:30:43.910Z,995.09
2023-10-15T11:31:45.711Z,995.14
2023-10-15T11:32:47.479Z,995.18
2023-10-15T11:33:49.110Z,995.33
2023-10-15T11:34:50.854Z,995.42
2023-10-15T11:35:52.617Z,995.48
2023-10-15T11:36:54.294Z,995.5
2023-10-15T11:37:56.055Z,995.54
2023-10-15T11:38:57.748Z,995.58
2023-10-15T11:39:59.482Z,995.57
2023-10-15T11:41:01.259Z,995.54
2023-10-15T11:42:02.942Z,995.71
2023-10-15T11:43:04.699Z,995.63
2023-10-15T11:44:06.528Z,995.63
2023-10-15T11:45:08.149Z,995.72
2023-10-15T11:46:09.888Z,995.68
2023-10-15T11:47:11.691Z,995.68
2023-10-15T11:48:13.457Z,995.73
2023-10-15T11:49:15.102Z,995.74
2023-10-15T11:50:16.901Z,995.75
2023-10-15T11:51:18.552Z,995.87
2023-10-15T11:52:20.790Z,995.85
2023-10-15T11:53:22.009Z,995.81
2023-10-15T11:54:23.911Z,995.76
2023-10-15T11:55:25.480Z,995.7
2023-10-15T11:56:27.236Z,995.73
2023-10-15T11:57:28.990Z,995.66
2023-10-15T11:58:30.688Z,995.69
2023-10-15T11:59:32.428Z,995.69
2023-10-15T12:00:34.272Z,995.66
2023-10-15T12:01:35.874Z,995.6
2023-10-15T12:02:37.697Z,995.57
2023-10-15T12:03:39.526Z,995.6
2023-10-15T12:04:41.321Z,995.62
2023-10-15T12:05:42.832Z,995.6
2023-10-15T12:06:44.569Z,995.62
2023-10-15T12:07:49.838Z,995.63
2023-10-15T12:08:48.023Z,995.62
2023-10-15T12:09:49.870Z,995.69
2023-10-15T12:10:51.531Z,995.7
2023-10-15T12:11:53.208Z,995.68
2023-10-15T12:12:54.953Z,995.65
2023-10-15T12:13:56.700Z,995.66
2023-10-15T12:14:58.843Z,995.66
2023-10-15T12:16:00.223Z,995.66
2023-10-15T12:17:02.188Z,995.63
2023-10-15T12:18:03.652Z,995.67
2023-10-15T12:19:05.418Z,995.64
2023-10-15T12:20:18.715Z,995.62
2023-10-15T12:21:08.820Z,995.66
2023-10-15T12:22:12.745Z,995.69
2023-10-15T12:23:12.443Z,995.72
2023-10-15T12:24:14.006Z,995.7
2023-10-15T12:25:15.858Z,995.7
2023-10-15T12:26:17.540Z,995.67
2023-10-15T12:27:19.396Z,995.67
2023-10-15T12:28:21.003Z,995.7
2023-10-15T12:29:30.112Z,995.6
2023-10-15T12:30:24.501Z,995.65
2023-10-15T12:31:26.167Z,995.67
2023-10-15T12:32:42.667Z,995.67
2023-10-15T12:33:29.682Z,995.62
2023-10-15T12:34:31.360Z,995.63
2023-10-15T12:35:33.087Z,995.64
2023-10-15T12:36:34.823Z,995.6
2023-10-15T12:37:36.542Z,995.62
2023-10-15T12:38:38.330Z,995.66
2023-10-15T12:39:40.083Z,995.6
2023-10-15T12:40:41.782Z,995.66
2023-10-15T12:41:43.528Z,995.63
2023-10-15T12:42:45.196Z,995.6
2023-10-15T12:43:47.012Z,995.62
2023-10-15T12:44:48.676Z,995.57
2023-10-15T12:45:50.428Z,995.58
2023-10-15T12:46:52.420Z,995.58
2023-10-15T12:47:53.969Z,995.53
2023-10-15T12:48:55.619Z,995.53
2023-10-15T12:49:57.400Z,995.56
2023-10-15T12:50:59.094Z,995.61
2023-10-15T12:52:00.837Z,995.6
2023-10-15T12:53:02.626Z,995.64
2023-10-15T12:54:04.287Z,995.62
2023-10-15T12:55:06.013Z,995.58
2023-10-15T12:56:07.757Z,995.59
2023-10-15T12:57:09.501Z,995.67
2023-10-15T12:58:11.243Z,995.66
2023-10-15T12:59:13.041Z,995.63
2023-10-15T13:00:14.790Z,995.71
2023-10-15T13:01:16.464Z,995.71
2023-10-15T13:02:18.199Z,995.68
2023-10-15T13:03:19.901Z,995.68
2023-10-15T13:04:21.636Z,995.74
2023-10-15T13:05:23.492Z,995.71
2023-10-15T13:06:25.085Z,995.71
2023-10-15T13:07:26.820Z,995.77
2023-10-15T13:08:28.551Z,995.77